sensor_id;sensor_type;location;lat;lon;timestamp;P1;durP1;ratioP1;P2;durP2;ratioP2
31808;SDS011;18379;48.208;-1.518;2022-10-22T00:04:31;46.03;;;42.67;;
31808;SDS011;18379;48.208;-1.518;2022-10-22T00:09:32;47.03;;;42.40;;
31808;SDS011;18379;48.208;-1.518;2022-10-22T00:14:33;47.60;;;43.00;;
31808;SDS011;18379;48.208;-1.518;2022-10-22T00:19:34;47.07;;;42.77;;
31808;SDS011;18379;48.208;-1.518;2022-10-22T00:24:35;46.47;;;42.93;;
31808;SDS011;18379;48.208;-1.518;2022-10-22T00:29:36;47.00;;;43.23;;
31808;SDS011;18379;48.208;-1.518;2022-10-22T00:34:37;46.63;;;42.57;;
31808;SDS011;18379;48.208;-1.518;2022-10-22T00:39:38;46.83;;;42.90;;
31808;SDS011;18379;48.208;-1.518;2022-10-22T00:50:05;45.90;;;42.10;;
31808;SDS011;18379;48.208;-1.518;2022-10-22T00:55:10;46.37;;;42.30;;
31808;SDS011;18379;48.208;-1.518;2022-10-22T01:00:13;48.37;;;43.97;;
31808;SDS011;18379;48.208;-1.518;2022-10-22T01:05:14;48.47;;;44.37;;
31808;SDS011;18379;48.208;-1.518;2022-10-22T01:15:31;48.90;;;44.67;;
31808;SDS011;18379;48.208;-1.518;2022-10-22T01:31:19;49.23;;;44.90;;
31808;SDS011;18379;48.208;-1.518;2022-10-22T01:36:21;50.27;;;45.20;;
31808;SDS011;18379;48.208;-1.518;2022-10-22T01:41:23;49.50;;;44.73;;
31808;SDS011;18379;48.208;-1.518;2022-10-22T01:46:24;50.40;;;45.40;;
31808;SDS011;18379;48.208;-1.518;2022-10-22T01:57:04;49.03;;;44.80;;
31808;SDS011;18379;48.208;-1.518;2022-10-22T02:07:38;48.00;;;43.60;;
31808;SDS011;18379;48.208;-1.518;2022-10-22T02:12:43;47.93;;;43.63;;
31808;SDS011;18379;48.208;-1.518;2022-10-22T02:17:48;49.90;;;45.33;;
31808;SDS011;18379;48.208;-1.518;2022-10-22T02:22:51;49.33;;;44.93;;
31808;SDS011;18379;48.208;-1.518;2022-10-22T02:27:56;50.10;;;44.83;;
31808;SDS011;18379;48.208;-1.518;2022-10-22T02:33:29;50.33;;;45.90;;
31808;SDS011;18379;48.208;-1.518;2022-10-22T02:38:33;47.27;;;43.03;;
31808;SDS011;18379;48.208;-1.518;2022-10-22T02:43:38;47.93;;;43.53;;
31808;SDS011;18379;48.208;-1.518;2022-10-22T02:48:44;48.97;;;44.60;;
31808;SDS011;18379;48.208;-1.518;2022-10-22T02:53:46;50.53;;;45.87;;
31808;SDS011;18379;48.208;-1.518;2022-10-22T02:58:46;50.00;;;45.37;;
31808;SDS011;18379;48.208;-1.518;2022-10-22T03:03:47;50.80;;;46.43;;
31808;SDS011;18379;48.208;-1.518;2022-10-22T03:08:48;52.20;;;47.10;;
31808;SDS011;18379;48.208;-1.518;2022-10-22T03:13:49;49.93;;;45.33;;
31808;SDS011;18379;48.208;-1.518;2022-10-22T03:18:49;49.53;;;45.10;;
31808;SDS011;18379;48.208;-1.518;2022-10-22T03:23:50;50.50;;;45.77;;
31808;SDS011;18379;48.208;-1.518;2022-10-22T03:28:52;49.83;;;44.70;;
31808;SDS011;18379;48.208;-1.518;2022-10-22T03:33:53;56.00;;;51.10;;
31808;SDS011;18379;48.208;-1.518;2022-10-22T03:38:55;51.17;;;45.73;;
31808;SDS011;18379;48.208;-1.518;2022-10-22T03:44:05;48.63;;;43.43;;
31808;SDS011;18379;48.208;-1.518;2022-10-22T03:49:06;47.13;;;42.93;;
31808;SDS011;18379;48.208;-1.518;2022-10-22T03:54:07;46.53;;;42.33;;
31808;SDS011;18379;48.208;-1.518;2022-10-22T03:59:07;46.37;;;42.77;;
31808;SDS011;18379;48.208;-1.518;2022-10-22T04:04:08;48.10;;;43.57;;
31808;SDS011;18379;48.208;-1.518;2022-10-22T04:09:09;46.13;;;42.10;;
31808;SDS011;18379;48.208;-1.518;2022-10-22T04:14:10;46.40;;;42.23;;
31808;SDS011;18379;48.208;-1.518;2022-10-22T04:19:11;45.83;;;42.23;;
31808;SDS011;18379;48.208;-1.518;2022-10-22T04:24:12;47.50;;;42.83;;
31808;SDS011;18379;48.208;-1.518;2022-10-22T04:29:17;50.63;;;45.73;;
31808;SDS011;18379;48.208;-1.518;2022-10-22T04:34:17;50.53;;;45.53;;
31808;SDS011;18379;48.208;-1.518;2022-10-22T04:39:18;50.37;;;45.50;;
31808;SDS011;18379;48.208;-1.518;2022-10-22T04:44:19;50.70;;;45.40;;
31808;SDS011;18379;48.208;-1.518;2022-10-22T04:49:20;50.33;;;45.40;;
31808;SDS011;18379;48.208;-1.518;2022-10-22T04:54:21;55.20;;;50.03;;
31808;SDS011;18379;48.208;-1.518;2022-10-22T04:59:22;53.37;;;47.30;;
31808;SDS011;18379;48.208;-1.518;2022-10-22T05:04:22;50.10;;;45.37;;
31808;SDS011;18379;48.208;-1.518;2022-10-22T05:09:23;52.80;;;47.67;;
31808;SDS011;18379;48.208;-1.518;2022-10-22T05:14:24;50.00;;;45.53;;
31808;SDS011;18379;48.208;-1.518;2022-10-22T05:19:26;50.63;;;45.70;;
31808;SDS011;18379;48.208;-1.518;2022-10-22T05:24:29;59.00;;;53.73;;
31808;SDS011;18379;48.208;-1.518;2022-10-22T05:29:30;52.40;;;47.70;;
31808;SDS011;18379;48.208;-1.518;2022-10-22T05:34:31;49.93;;;45.13;;
31808;SDS011;18379;48.208;-1.518;2022-10-22T05:39:32;47.10;;;42.83;;
31808;SDS011;18379;48.208;-1.518;2022-10-22T05:44:35;46.43;;;42.50;;
31808;SDS011;18379;48.208;-1.518;2022-10-22T05:49:38;44.97;;;41.77;;
31808;SDS011;18379;48.208;-1.518;2022-10-22T05:54:38;48.20;;;43.57;;
31808;SDS011;18379;48.208;-1.518;2022-10-22T05:59:39;46.37;;;42.33;;
31808;SDS011;18379;48.208;-1.518;2022-10-22T06:04:40;46.80;;;42.90;;
31808;SDS011;18379;48.208;-1.518;2022-10-22T06:09:41;46.50;;;42.83;;
31808;SDS011;18379;48.208;-1.518;2022-10-22T06:14:42;47.57;;;43.53;;
31808;SDS011;18379;48.208;-1.518;2022-10-22T06:19:43;48.10;;;43.80;;
31808;SDS011;18379;48.208;-1.518;2022-10-22T06:24:44;48.47;;;44.07;;
31808;SDS011;18379;48.208;-1.518;2022-10-22T06:29:44;49.50;;;44.87;;
31808;SDS011;18379;48.208;-1.518;2022-10-22T06:34:46;49.27;;;45.27;;
31808;SDS011;18379;48.208;-1.518;2022-10-22T06:39:49;52.43;;;46.80;;
31808;SDS011;18379;48.208;-1.518;2022-10-22T06:44:50;50.57;;;45.43;;
31808;SDS011;18379;48.208;-1.518;2022-10-22T06:49:51;50.97;;;45.83;;
31808;SDS011;18379;48.208;-1.518;2022-10-22T06:54:51;50.20;;;45.63;;
31808;SDS011;18379;48.208;-1.518;2022-10-22T06:59:52;55.97;;;50.00;;
31808;SDS011;18379;48.208;-1.518;2022-10-22T07:04:53;52.03;;;46.47;;
31808;SDS011;18379;48.208;-1.518;2022-10-22T07:09:54;53.93;;;48.77;;
31808;SDS011;18379;48.208;-1.518;2022-10-22T07:14:54;51.17;;;46.53;;
31808;SDS011;18379;48.208;-1.518;2022-10-22T07:19:55;53.03;;;47.83;;
31808;SDS011;18379;48.208;-1.518;2022-10-22T07:24:56;52.67;;;47.70;;
31808;SDS011;18379;48.208;-1.518;2022-10-22T07:29:57;52.00;;;47.43;;
31808;SDS011;18379;48.208;-1.518;2022-10-22T07:35:00;51.97;;;46.90;;
31808;SDS011;18379;48.208;-1.518;2022-10-22T07:40:00;50.93;;;46.23;;
31808;SDS011;18379;48.208;-1.518;2022-10-22T07:45:02;53.47;;;47.77;;
31808;SDS011;18379;48.208;-1.518;2022-10-22T07:50:03;49.80;;;44.97;;
31808;SDS011;18379;48.208;-1.518;2022-10-22T07:55:06;49.73;;;45.10;;
31808;SDS011;18379;48.208;-1.518;2022-10-22T08:00:08;50.97;;;45.90;;
31808;SDS011;18379;48.208;-1.518;2022-10-22T08:05:09;51.03;;;45.50;;
31808;SDS011;18379;48.208;-1.518;2022-10-22T08:10:12;50.57;;;45.90;;
31808;SDS011;18379;48.208;-1.518;2022-10-22T08:15:13;50.30;;;45.30;;
31808;SDS011;18379;48.208;-1.518;2022-10-22T08:20:13;50.77;;;45.87;;
31808;SDS011;18379;48.208;-1.518;2022-10-22T08:25:15;53.17;;;47.57;;
31808;SDS011;18379;48.208;-1.518;2022-10-22T08:30:17;53.63;;;48.37;;
31808;SDS011;18379;48.208;-1.518;2022-10-22T08:35:18;55.00;;;49.40;;
31808;SDS011;18379;48.208;-1.518;2022-10-22T08:40:20;54.43;;;48.67;;
31808;SDS011;18379;48.208;-1.518;2022-10-22T08:45:42;51.07;;;45.80;;
31808;SDS011;18379;48.208;-1.518;2022-10-22T08:50:47;54.60;;;48.83;;
31808;SDS011;18379;48.208;-1.518;2022-10-22T08:55:52;52.70;;;47.37;;
31808;SDS011;18379;48.208;-1.518;2022-10-22T09:01:00;53.23;;;47.97;;
31808;SDS011;18379;48.208;-1.518;2022-10-22T09:06:15;50.43;;;46.13;;
31808;SDS011;18379;48.208;-1.518;2022-10-22T09:11:25;53.90;;;48.97;;
31808;SDS011;18379;48.208;-1.518;2022-10-22T09:16:33;53.47;;;48.27;;
31808;SDS011;18379;48.208;-1.518;2022-10-22T09:27:03;53.47;;;48.60;;
31808;SDS011;18379;48.208;-1.518;2022-10-22T09:32:10;50.20;;;45.63;;
31808;SDS011;18379;48.208;-1.518;2022-10-22T09:37:11;50.30;;;45.60;;
31808;SDS011;18379;48.208;-1.518;2022-10-22T09:42:16;51.00;;;46.83;;
31808;SDS011;18379;48.208;-1.518;2022-10-22T09:47:37;53.73;;;49.23;;
31808;SDS011;18379;48.208;-1.518;2022-10-22T09:52:40;50.93;;;46.40;;
31808;SDS011;18379;48.208;-1.518;2022-10-22T09:57:41;51.97;;;47.30;;
31808;SDS011;18379;48.208;-1.518;2022-10-22T10:02:42;51.67;;;47.30;;
31808;SDS011;18379;48.208;-1.518;2022-10-22T10:07:43;54.77;;;49.80;;
31808;SDS011;18379;48.208;-1.518;2022-10-22T10:23:31;54.20;;;48.83;;
31808;SDS011;18379;48.208;-1.518;2022-10-22T10:55:58;54.40;;;49.73;;
31808;SDS011;18379;48.208;-1.518;2022-10-22T11:01:43;56.13;;;51.07;;
31808;SDS011;18379;48.208;-1.518;2022-10-22T11:06:57;54.50;;;49.27;;
31808;SDS011;18379;48.208;-1.518;2022-10-22T11:12:05;51.07;;;46.37;;
31808;SDS011;18379;48.208;-1.518;2022-10-22T11:17:16;51.70;;;46.83;;
31808;SDS011;18379;48.208;-1.518;2022-10-22T11:27:31;53.07;;;48.17;;
31808;SDS011;18379;48.208;-1.518;2022-10-22T11:32:40;48.70;;;44.77;;
31808;SDS011;18379;48.208;-1.518;2022-10-22T11:37:43;49.73;;;45.37;;
31808;SDS011;18379;48.208;-1.518;2022-10-22T11:42:48;52.30;;;48.03;;
31808;SDS011;18379;48.208;-1.518;2022-10-22T11:53:17;51.27;;;47.07;;
31808;SDS011;18379;48.208;-1.518;2022-10-22T11:58:31;50.90;;;46.83;;
31808;SDS011;18379;48.208;-1.518;2022-10-22T12:08:42;48.60;;;45.10;;
31808;SDS011;18379;48.208;-1.518;2022-10-22T12:19:29;52.27;;;48.23;;
31808;SDS011;18379;48.208;-1.518;2022-10-22T12:24:39;48.70;;;45.33;;
31808;SDS011;18379;48.208;-1.518;2022-10-22T12:29:43;49.27;;;45.73;;
31808;SDS011;18379;48.208;-1.518;2022-10-22T12:34:45;52.03;;;47.87;;
31808;SDS011;18379;48.208;-1.518;2022-10-22T12:39:50;60.70;;;55.90;;
31808;SDS011;18379;48.208;-1.518;2022-10-22T12:44:54;61.90;;;57.17;;
31808;SDS011;18379;48.208;-1.518;2022-10-22T12:49:55;60.50;;;56.00;;
31808;SDS011;18379;48.208;-1.518;2022-10-22T12:54:56;61.37;;;56.73;;
31808;SDS011;18379;48.208;-1.518;2022-10-22T12:59:57;60.43;;;55.83;;
31808;SDS011;18379;48.208;-1.518;2022-10-22T13:10:24;58.10;;;53.47;;
31808;SDS011;18379;48.208;-1.518;2022-10-22T13:20:28;50.73;;;46.93;;
31808;SDS011;18379;48.208;-1.518;2022-10-22T13:25:33;52.83;;;49.00;;
31808;SDS011;18379;48.208;-1.518;2022-10-22T13:30:37;47.80;;;44.80;;
31808;SDS011;18379;48.208;-1.518;2022-10-22T13:35:50;51.93;;;48.27;;
31808;SDS011;18379;48.208;-1.518;2022-10-22T13:40:52;51.07;;;47.20;;
31808;SDS011;18379;48.208;-1.518;2022-10-22T13:45:54;50.70;;;47.10;;
31808;SDS011;18379;48.208;-1.518;2022-10-22T13:50:57;52.70;;;48.90;;
31808;SDS011;18379;48.208;-1.518;2022-10-22T13:55:58;51.20;;;47.53;;
31808;SDS011;18379;48.208;-1.518;2022-10-22T14:00:59;50.83;;;47.23;;
31808;SDS011;18379;48.208;-1.518;2022-10-22T14:06:01;52.10;;;48.50;;
31808;SDS011;18379;48.208;-1.518;2022-10-22T14:11:02;49.17;;;45.67;;
31808;SDS011;18379;48.208;-1.518;2022-10-22T14:16:04;49.87;;;46.13;;
31808;SDS011;18379;48.208;-1.518;2022-10-22T14:21:06;48.73;;;45.27;;
31808;SDS011;18379;48.208;-1.518;2022-10-22T14:26:08;48.50;;;45.07;;
31808;SDS011;18379;48.208;-1.518;2022-10-22T14:31:29;59.23;;;54.83;;
31808;SDS011;18379;48.208;-1.518;2022-10-22T14:36:30;58.97;;;54.47;;
31808;SDS011;18379;48.208;-1.518;2022-10-22T14:41:30;57.23;;;52.97;;
31808;SDS011;18379;48.208;-1.518;2022-10-22T14:46:31;54.93;;;51.03;;
31808;SDS011;18379;48.208;-1.518;2022-10-22T14:51:32;49.77;;;46.30;;
31808;SDS011;18379;48.208;-1.518;2022-10-22T14:56:33;48.73;;;45.23;;
31808;SDS011;18379;48.208;-1.518;2022-10-22T15:01:34;48.20;;;45.00;;
31808;SDS011;18379;48.208;-1.518;2022-10-22T15:06:35;48.07;;;44.70;;
31808;SDS011;18379;48.208;-1.518;2022-10-22T15:11:36;48.67;;;45.33;;
31808;SDS011;18379;48.208;-1.518;2022-10-22T15:16:37;47.77;;;44.57;;
31808;SDS011;18379;48.208;-1.518;2022-10-22T15:21:38;51.87;;;47.97;;
31808;SDS011;18379;48.208;-1.518;2022-10-22T15:26:39;50.63;;;47.13;;
31808;SDS011;18379;48.208;-1.518;2022-10-22T15:31:41;51.73;;;47.67;;
31808;SDS011;18379;48.208;-1.518;2022-10-22T15:36:42;59.83;;;54.43;;
31808;SDS011;18379;48.208;-1.518;2022-10-22T15:41:43;54.27;;;50.03;;
31808;SDS011;18379;48.208;-1.518;2022-10-22T15:46:46;65.50;;;59.50;;
31808;SDS011;18379;48.208;-1.518;2022-10-22T15:51:47;67.30;;;60.50;;
31808;SDS011;18379;48.208;-1.518;2022-10-22T15:56:48;113.60;;;87.23;;
31808;SDS011;18379;48.208;-1.518;2022-10-22T16:01:49;75.30;;;67.33;;
31808;SDS011;18379;48.208;-1.518;2022-10-22T16:06:51;62.83;;;57.40;;
31808;SDS011;18379;48.208;-1.518;2022-10-22T16:11:53;60.80;;;56.07;;
31808;SDS011;18379;48.208;-1.518;2022-10-22T16:16:54;54.47;;;50.17;;
31808;SDS011;18379;48.208;-1.518;2022-10-22T16:21:55;52.80;;;48.90;;
31808;SDS011;18379;48.208;-1.518;2022-10-22T16:26:58;53.93;;;50.07;;
31808;SDS011;18379;48.208;-1.518;2022-10-22T16:31:59;52.10;;;48.50;;
31808;SDS011;18379;48.208;-1.518;2022-10-22T16:37:00;53.97;;;50.03;;
31808;SDS011;18379;48.208;-1.518;2022-10-22T16:42:01;59.47;;;54.57;;
31808;SDS011;18379;48.208;-1.518;2022-10-22T16:47:02;54.20;;;50.27;;
31808;SDS011;18379;48.208;-1.518;2022-10-22T16:52:03;54.90;;;50.63;;
31808;SDS011;18379;48.208;-1.518;2022-10-22T16:57:04;54.47;;;50.30;;
31808;SDS011;18379;48.208;-1.518;2022-10-22T17:02:05;54.90;;;50.70;;
31808;SDS011;18379;48.208;-1.518;2022-10-22T17:07:06;54.03;;;49.97;;
31808;SDS011;18379;48.208;-1.518;2022-10-22T17:12:07;52.03;;;48.13;;
31808;SDS011;18379;48.208;-1.518;2022-10-22T17:17:08;48.37;;;45.07;;
31808;SDS011;18379;48.208;-1.518;2022-10-22T17:22:09;48.53;;;45.07;;
31808;SDS011;18379;48.208;-1.518;2022-10-22T17:27:10;47.57;;;44.47;;
31808;SDS011;18379;48.208;-1.518;2022-10-22T17:32:11;47.70;;;44.60;;
31808;SDS011;18379;48.208;-1.518;2022-10-22T17:37:11;47.97;;;44.77;;
31808;SDS011;18379;48.208;-1.518;2022-10-22T17:42:12;47.47;;;44.40;;
31808;SDS011;18379;48.208;-1.518;2022-10-22T17:47:13;47.57;;;44.70;;
31808;SDS011;18379;48.208;-1.518;2022-10-22T17:52:14;47.73;;;44.40;;
31808;SDS011;18379;48.208;-1.518;2022-10-22T17:57:15;47.47;;;44.50;;
31808;SDS011;18379;48.208;-1.518;2022-10-22T18:02:16;49.17;;;45.87;;
31808;SDS011;18379;48.208;-1.518;2022-10-22T18:07:18;51.83;;;47.77;;
31808;SDS011;18379;48.208;-1.518;2022-10-22T18:12:20;50.43;;;46.73;;
31808;SDS011;18379;48.208;-1.518;2022-10-22T18:17:20;51.93;;;48.23;;
31808;SDS011;18379;48.208;-1.518;2022-10-22T18:22:21;50.73;;;46.97;;
31808;SDS011;18379;48.208;-1.518;2022-10-22T18:27:22;52.17;;;48.20;;
31808;SDS011;18379;48.208;-1.518;2022-10-22T18:32:26;51.40;;;47.57;;
31808;SDS011;18379;48.208;-1.518;2022-10-22T18:37:27;49.23;;;45.93;;
31808;SDS011;18379;48.208;-1.518;2022-10-22T18:42:29;49.40;;;46.00;;
31808;SDS011;18379;48.208;-1.518;2022-10-22T18:47:30;48.87;;;45.53;;
31808;SDS011;18379;48.208;-1.518;2022-10-22T18:52:31;49.50;;;46.17;;
31808;SDS011;18379;48.208;-1.518;2022-10-22T18:57:32;48.93;;;45.53;;
31808;SDS011;18379;48.208;-1.518;2022-10-22T19:02:33;48.70;;;45.33;;
31808;SDS011;18379;48.208;-1.518;2022-10-22T19:07:34;46.07;;;43.43;;
31808;SDS011;18379;48.208;-1.518;2022-10-22T19:12:37;47.27;;;44.17;;
31808;SDS011;18379;48.208;-1.518;2022-10-22T19:17:39;47.27;;;44.27;;
31808;SDS011;18379;48.208;-1.518;2022-10-22T19:22:40;46.97;;;43.97;;
31808;SDS011;18379;48.208;-1.518;2022-10-22T19:27:41;48.20;;;44.50;;
31808;SDS011;18379;48.208;-1.518;2022-10-22T19:32:45;47.70;;;44.63;;
31808;SDS011;18379;48.208;-1.518;2022-10-22T19:37:47;49.83;;;46.63;;
31808;SDS011;18379;48.208;-1.518;2022-10-22T19:42:48;50.73;;;47.03;;
31808;SDS011;18379;48.208;-1.518;2022-10-22T19:47:50;52.03;;;48.17;;
31808;SDS011;18379;48.208;-1.518;2022-10-22T19:52:51;51.03;;;47.63;;
31808;SDS011;18379;48.208;-1.518;2022-10-22T19:57:52;48.90;;;45.60;;
31808;SDS011;18379;48.208;-1.518;2022-10-22T20:02:53;51.50;;;47.87;;
31808;SDS011;18379;48.208;-1.518;2022-10-22T20:07:53;48.93;;;45.60;;
31808;SDS011;18379;48.208;-1.518;2022-10-22T20:12:54;49.33;;;45.90;;
31808;SDS011;18379;48.208;-1.518;2022-10-22T20:17:55;49.53;;;46.33;;
31808;SDS011;18379;48.208;-1.518;2022-10-22T20:22:56;49.70;;;46.47;;
31808;SDS011;18379;48.208;-1.518;2022-10-22T20:27:57;49.63;;;46.10;;
31808;SDS011;18379;48.208;-1.518;2022-10-22T20:32:58;50.50;;;47.10;;
31808;SDS011;18379;48.208;-1.518;2022-10-22T20:37:59;49.47;;;46.33;;
31808;SDS011;18379;48.208;-1.518;2022-10-22T20:43:00;49.33;;;45.97;;
31808;SDS011;18379;48.208;-1.518;2022-10-22T20:48:01;49.60;;;46.20;;
31808;SDS011;18379;48.208;-1.518;2022-10-22T20:53:03;46.80;;;43.90;;
31808;SDS011;18379;48.208;-1.518;2022-10-22T20:58:05;47.10;;;44.10;;
31808;SDS011;18379;48.208;-1.518;2022-10-22T21:03:06;48.83;;;45.50;;
31808;SDS011;18379;48.208;-1.518;2022-10-22T21:08:06;47.27;;;44.20;;
31808;SDS011;18379;48.208;-1.518;2022-10-22T21:13:09;46.43;;;43.77;;
31808;SDS011;18379;48.208;-1.518;2022-10-22T21:18:10;45.97;;;43.27;;
31808;SDS011;18379;48.208;-1.518;2022-10-22T21:23:10;46.10;;;43.40;;
31808;SDS011;18379;48.208;-1.518;2022-10-22T21:28:11;46.40;;;43.53;;
31808;SDS011;18379;48.208;-1.518;2022-10-22T21:33:12;46.30;;;43.50;;
31808;SDS011;18379;48.208;-1.518;2022-10-22T21:38:13;46.03;;;43.13;;
31808;SDS011;18379;48.208;-1.518;2022-10-22T21:43:14;46.33;;;43.40;;
31808;SDS011;18379;48.208;-1.518;2022-10-22T21:48:16;46.93;;;44.03;;
31808;SDS011;18379;48.208;-1.518;2022-10-22T21:53:16;47.93;;;44.73;;
31808;SDS011;18379;48.208;-1.518;2022-10-22T21:58:17;48.27;;;45.20;;
31808;SDS011;18379;48.208;-1.518;2022-10-22T22:03:18;49.13;;;45.73;;
31808;SDS011;18379;48.208;-1.518;2022-10-22T22:08:19;49.83;;;46.63;;
31808;SDS011;18379;48.208;-1.518;2022-10-22T22:13:19;50.00;;;46.80;;
31808;SDS011;18379;48.208;-1.518;2022-10-22T22:18:23;48.87;;;45.80;;
31808;SDS011;18379;48.208;-1.518;2022-10-22T22:23:24;49.23;;;45.87;;
31808;SDS011;18379;48.208;-1.518;2022-10-22T22:28:26;48.83;;;45.63;;
31808;SDS011;18379;48.208;-1.518;2022-10-22T22:33:28;49.03;;;46.03;;
31808;SDS011;18379;48.208;-1.518;2022-10-22T22:38:29;49.40;;;46.23;;
31808;SDS011;18379;48.208;-1.518;2022-10-22T22:43:30;48.17;;;45.27;;
31808;SDS011;18379;48.208;-1.518;2022-10-22T22:48:31;48.50;;;45.40;;
31808;SDS011;18379;48.208;-1.518;2022-10-22T22:53:33;51.27;;;47.77;;
31808;SDS011;18379;48.208;-1.518;2022-10-22T22:58:34;46.27;;;43.57;;
31808;SDS011;18379;48.208;-1.518;2022-10-22T23:03:36;45.57;;;42.90;;
31808;SDS011;18379;48.208;-1.518;2022-10-22T23:08:37;45.70;;;43.10;;
31808;SDS011;18379;48.208;-1.518;2022-10-22T23:13:38;45.90;;;43.20;;
31808;SDS011;18379;48.208;-1.518;2022-10-22T23:18:40;45.60;;;42.90;;
31808;SDS011;18379;48.208;-1.518;2022-10-22T23:23:42;46.27;;;43.53;;
31808;SDS011;18379;48.208;-1.518;2022-10-22T23:28:51;48.50;;;45.40;;
31808;SDS011;18379;48.208;-1.518;2022-10-22T23:33:51;48.00;;;45.07;;
31808;SDS011;18379;48.208;-1.518;2022-10-22T23:38:52;48.53;;;45.30;;
31808;SDS011;18379;48.208;-1.518;2022-10-22T23:43:54;48.13;;;45.13;;
31808;SDS011;18379;48.208;-1.518;2022-10-22T23:48:55;48.60;;;45.50;;
31808;SDS011;18379;48.208;-1.518;2022-10-22T23:54:00;51.67;;;48.17;;
31808;SDS011;18379;48.208;-1.518;2022-10-22T23:59:02;47.93;;;44.90;;
